sensor_id;sensor_type;location;lat;lon;timestamp;pressure;altitude;pressure_sealevel;temperature;humidity
14885;BME280;7534;50.762;7.000;2022-08-23T00:02:06;151616.34;;;20.87;58.24
14885;BME280;7534;50.762;7.000;2022-08-23T00:04:39;151601.81;;;20.81;58.34
14885;BME280;7534;50.762;7.000;2022-08-23T00:07:08;151588.59;;;20.76;58.37
14885;BME280;7534;50.762;7.000;2022-08-23T00:09:34;151563.56;;;20.67;58.55
14885;BME280;7534;50.762;7.000;2022-08-23T00:14:41;151539.81;;;20.58;59.01
14885;BME280;7534;50.762;7.000;2022-08-23T00:17:10;151531.88;;;20.54;59.20
14885;BME280;7534;50.762;7.000;2022-08-23T00:19:37;151509.44;;;20.46;59.70
14885;BME280;7534;50.762;7.000;2022-08-23T00:22:06;151505.47;;;20.44;59.65
14885;BME280;7534;50.762;7.000;2022-08-23T00:24:32;151517.38;;;20.49;59.71
14885;BME280;7534;50.762;7.000;2022-08-23T00:29:40;151498.91;;;20.42;59.77
14885;BME280;7534;50.762;7.000;2022-08-23T00:32:10;151494.94;;;20.40;59.95
14885;BME280;7534;50.762;7.000;2022-08-23T00:34:37;151490.97;;;20.39;60.03
14885;BME280;7534;50.762;7.000;2022-08-23T00:37:04;151483.03;;;20.36;60.38
14885;BME280;7534;50.762;7.000;2022-08-23T00:39:31;151450.03;;;20.23;60.56
14885;BME280;7534;50.762;7.000;2022-08-23T00:42:03;151446.06;;;20.22;61.08
14885;BME280;7534;50.762;7.000;2022-08-23T00:44:50;151426.28;;;20.14;61.19
14885;BME280;7534;50.762;7.000;2022-08-23T00:47:36;151403.84;;;20.05;61.83
14885;BME280;7534;50.762;7.000;2022-08-23T00:50:23;151382.72;;;19.97;62.02
14885;BME280;7534;50.762;7.000;2022-08-23T00:53:17;151361.63;;;19.89;62.49
14885;BME280;7534;50.762;7.000;2022-08-23T00:55:49;151336.56;;;19.79;63.10
14885;BME280;7534;50.762;7.000;2022-08-23T00:58:18;151311.56;;;19.70;63.55
14885;BME280;7534;50.762;7.000;2022-08-23T01:00:48;151293.03;;;19.63;63.71
14885;BME280;7534;50.762;7.000;2022-08-23T01:03:18;151266.72;;;19.53;64.08
14885;BME280;7534;50.762;7.000;2022-08-23T01:06:00;151236.31;;;19.41;64.59
14885;BME280;7534;50.762;7.000;2022-08-23T01:08:32;151224.47;;;19.36;64.83
14885;BME280;7534;50.762;7.000;2022-08-23T01:11:14;151207.28;;;19.30;65.11
14885;BME280;7534;50.762;7.000;2022-08-23T01:16:24;151178.31;;;19.19;65.66
14885;BME280;7534;50.762;7.000;2022-08-23T01:18:55;151157.22;;;19.11;65.73
14885;BME280;7534;50.762;7.000;2022-08-23T01:21:34;151137.47;;;19.03;65.96
14885;BME280;7534;50.762;7.000;2022-08-23T01:24:04;151117.69;;;18.95;66.45
14885;BME280;7534;50.762;7.000;2022-08-23T01:26:31;151104.50;;;18.90;66.81
14885;BME280;7534;50.762;7.000;2022-08-23T01:29:02;151072.88;;;18.78;67.34
14885;BME280;7534;50.762;7.000;2022-08-23T01:31:30;151064.97;;;18.75;67.54
14885;BME280;7534;50.762;7.000;2022-08-23T01:33:59;151049.16;;;18.69;67.73
14885;BME280;7534;50.762;7.000;2022-08-23T01:36:27;151042.56;;;18.66;67.77
14885;BME280;7534;50.762;7.000;2022-08-23T01:38:54;151028.06;;;18.61;67.55
14885;BME280;7534;50.762;7.000;2022-08-23T01:41:20;150995.13;;;18.48;68.17
14885;BME280;7534;50.762;7.000;2022-08-23T01:43:45;151009.59;;;18.54;68.84
14885;BME280;7534;50.762;7.000;2022-08-23T01:46:16;150995.13;;;18.48;68.99
14885;BME280;7534;50.762;7.000;2022-08-23T01:48:45;150993.78;;;18.48;69.13
14885;BME280;7534;50.762;7.000;2022-08-23T01:51:13;150987.19;;;18.45;69.65
14885;BME280;7534;50.762;7.000;2022-08-23T01:53:41;150974.03;;;18.40;69.81
14885;BME280;7534;50.762;7.000;2022-08-23T01:56:08;150964.78;;;18.37;69.71
14885;BME280;7534;50.762;7.000;2022-08-23T01:58:34;150962.16;;;18.36;69.75
14885;BME280;7534;50.762;7.000;2022-08-23T02:01:00;150958.19;;;18.34;69.58
14885;BME280;7534;50.762;7.000;2022-08-23T02:03:33;150952.97;;;18.32;69.97
14885;BME280;7534;50.762;7.000;2022-08-23T02:06:02;150941.09;;;18.27;70.06
14885;BME280;7534;50.762;7.000;2022-08-23T02:08:28;150933.16;;;18.24;70.57
14885;BME280;7534;50.762;7.000;2022-08-23T02:11:17;150931.88;;;18.24;70.59
14885;BME280;7534;50.762;7.000;2022-08-23T02:13:48;150925.28;;;18.21;70.75
14885;BME280;7534;50.762;7.000;2022-08-23T02:16:33;150923.97;;;18.21;70.79
14885;BME280;7534;50.762;7.000;2022-08-23T02:19:14;150930.56;;;18.23;71.17
14885;BME280;7534;50.762;7.000;2022-08-23T02:21:43;150910.81;;;18.16;71.09
14885;BME280;7534;50.762;7.000;2022-08-23T02:24:13;150905.53;;;18.14;71.09
14885;BME280;7534;50.762;7.000;2022-08-23T02:26:45;150902.88;;;18.13;71.01
14885;BME280;7534;50.762;7.000;2022-08-23T02:29:13;150897.59;;;18.11;71.13
14885;BME280;7534;50.762;7.000;2022-08-23T02:31:40;150894.97;;;18.10;71.29
14885;BME280;7534;50.762;7.000;2022-08-23T02:34:06;150850.19;;;17.92;72.08
14885;BME280;7534;50.762;7.000;2022-08-23T02:36:32;150812.00;;;17.78;72.60
14885;BME280;7534;50.762;7.000;2022-08-23T02:39:03;150837.03;;;17.87;72.07
14885;BME280;7534;50.762;7.000;2022-08-23T02:41:33;150846.28;;;17.91;71.75
14885;BME280;7534;50.762;7.000;2022-08-23T02:43:59;150864.72;;;17.98;71.68
14885;BME280;7534;50.762;7.000;2022-08-23T02:46:25;150869.94;;;18.00;71.77
14885;BME280;7534;50.762;7.000;2022-08-23T02:48:54;150872.56;;;18.01;71.64
14885;BME280;7534;50.762;7.000;2022-08-23T02:51:20;150873.91;;;18.02;71.80
14885;BME280;7534;50.762;7.000;2022-08-23T02:53:46;150864.72;;;17.98;71.83
14885;BME280;7534;50.762;7.000;2022-08-23T02:56:13;150856.78;;;17.95;71.83
14885;BME280;7534;50.762;7.000;2022-08-23T02:58:39;150852.81;;;17.93;71.73
14885;BME280;7534;50.762;7.000;2022-08-23T03:01:18;150842.31;;;17.89;72.21
14885;BME280;7534;50.762;7.000;2022-08-23T03:03:45;150823.88;;;17.82;72.33
14885;BME280;7534;50.762;7.000;2022-08-23T03:06:15;150813.31;;;17.78;72.57
14885;BME280;7534;50.762;7.000;2022-08-23T03:08:47;150825.22;;;17.83;72.76
14885;BME280;7534;50.762;7.000;2022-08-23T03:11:18;150825.22;;;17.83;72.78
14885;BME280;7534;50.762;7.000;2022-08-23T03:13:56;150814.66;;;17.79;73.05
14885;BME280;7534;50.762;7.000;2022-08-23T03:16:24;150788.31;;;17.69;72.56
14885;BME280;7534;50.762;7.000;2022-08-23T03:18:57;150760.66;;;17.58;72.25
14885;BME280;7534;50.762;7.000;2022-08-23T03:21:23;150760.66;;;17.58;72.29
14885;BME280;7534;50.762;7.000;2022-08-23T03:23:49;150775.16;;;17.64;72.35
14885;BME280;7534;50.762;7.000;2022-08-23T03:26:16;150789.63;;;17.69;72.17
14885;BME280;7534;50.762;7.000;2022-08-23T03:28:44;150771.19;;;17.62;71.78
14885;BME280;7534;50.762;7.000;2022-08-23T03:31:12;150730.34;;;17.46;71.85
14885;BME280;7534;50.762;7.000;2022-08-23T03:33:39;150732.97;;;17.47;72.14
14885;BME280;7534;50.762;7.000;2022-08-23T03:36:08;150756.69;;;17.57;71.66
14885;BME280;7534;50.762;7.000;2022-08-23T03:38:36;150773.84;;;17.63;71.67
14885;BME280;7534;50.762;7.000;2022-08-23T03:41:03;150779.13;;;17.65;71.83
14885;BME280;7534;50.762;7.000;2022-08-23T03:43:29;150779.13;;;17.65;71.85
14885;BME280;7534;50.762;7.000;2022-08-23T03:45:54;150760.66;;;17.58;72.37
14885;BME280;7534;50.762;7.000;2022-08-23T03:48:20;150754.03;;;17.55;72.26
14885;BME280;7534;50.762;7.000;2022-08-23T03:50:46;150705.31;;;17.37;72.91
14885;BME280;7534;50.762;7.000;2022-08-23T03:53:12;150727.69;;;17.45;72.76
14885;BME280;7534;50.762;7.000;2022-08-23T03:55:41;150729.03;;;17.46;72.91
14885;BME280;7534;50.762;7.000;2022-08-23T03:58:07;150723.75;;;17.44;73.23
14885;BME280;7534;50.762;7.000;2022-08-23T04:00:33;150714.56;;;17.40;73.26
14885;BME280;7534;50.762;7.000;2022-08-23T04:02:59;150714.56;;;17.40;73.23
14885;BME280;7534;50.762;7.000;2022-08-23T04:05:25;150701.38;;;17.35;73.36
14885;BME280;7534;50.762;7.000;2022-08-23T04:07:51;150702.69;;;17.36;73.53
14885;BME280;7534;50.762;7.000;2022-08-23T04:10:18;150686.91;;;17.30;73.92
14885;BME280;7534;50.762;7.000;2022-08-23T04:12:43;150675.09;;;17.25;74.07
14885;BME280;7534;50.762;7.000;2022-08-23T04:15:11;150656.66;;;17.18;74.37
14885;BME280;7534;50.762;7.000;2022-08-23T04:17:38;150644.78;;;17.13;74.74
14885;BME280;7534;50.762;7.000;2022-08-23T04:20:05;150639.50;;;17.11;75.01
14885;BME280;7534;50.762;7.000;2022-08-23T04:22:31;150630.34;;;17.08;75.13
14885;BME280;7534;50.762;7.000;2022-08-23T04:24:59;150623.75;;;17.05;75.34
14885;BME280;7534;50.762;7.000;2022-08-23T04:27:25;150619.78;;;17.04;75.58
14885;BME280;7534;50.762;7.000;2022-08-23T04:29:50;150605.31;;;16.98;75.76
14885;BME280;7534;50.762;7.000;2022-08-23T04:32:16;150593.50;;;16.94;76.02
14885;BME280;7534;50.762;7.000;2022-08-23T04:34:42;150581.63;;;16.89;76.17
14885;BME280;7534;50.762;7.000;2022-08-23T04:37:08;150584.28;;;16.90;76.36
14885;BME280;7534;50.762;7.000;2022-08-23T04:39:36;150582.94;;;16.90;76.34
14885;BME280;7534;50.762;7.000;2022-08-23T04:42:21;150579.00;;;16.88;76.52
14885;BME280;7534;50.762;7.000;2022-08-23T04:44:48;150577.69;;;16.88;76.49
14885;BME280;7534;50.762;7.000;2022-08-23T04:47:15;150582.94;;;16.90;76.69
14885;BME280;7534;50.762;7.000;2022-08-23T04:49:42;150592.19;;;16.93;76.44
14885;BME280;7534;50.762;7.000;2022-08-23T04:52:08;150592.19;;;16.93;76.55
14885;BME280;7534;50.762;7.000;2022-08-23T04:54:33;150613.22;;;17.01;76.46
14885;BME280;7534;50.762;7.000;2022-08-23T04:56:59;150630.34;;;17.08;76.17
14885;BME280;7534;50.762;7.000;2022-08-23T04:59:25;150646.13;;;17.14;76.11
14885;BME280;7534;50.762;7.000;2022-08-23T05:01:51;150657.97;;;17.19;75.95
14885;BME280;7534;50.762;7.000;2022-08-23T05:04:17;150669.81;;;17.23;75.81
14885;BME280;7534;50.762;7.000;2022-08-23T05:06:43;150685.59;;;17.29;75.47
14885;BME280;7534;50.762;7.000;2022-08-23T05:09:10;150705.31;;;17.37;75.11
14885;BME280;7534;50.762;7.000;2022-08-23T05:11:37;150718.53;;;17.42;75.20
14885;BME280;7534;50.762;7.000;2022-08-23T05:14:03;150742.22;;;17.51;74.79
14885;BME280;7534;50.762;7.000;2022-08-23T05:16:29;150756.69;;;17.57;74.38
14885;BME280;7534;50.762;7.000;2022-08-23T05:18:55;150781.75;;;17.66;73.92
14885;BME280;7534;50.762;7.000;2022-08-23T05:21:22;150810.69;;;17.77;73.81
14885;BME280;7534;50.762;7.000;2022-08-23T05:23:49;150835.72;;;17.87;73.49
14885;BME280;7534;50.762;7.000;2022-08-23T05:26:15;150871.25;;;18.01;73.20
14885;BME280;7534;50.762;7.000;2022-08-23T05:28:45;150901.56;;;18.12;72.83
14885;BME280;7534;50.762;7.000;2022-08-23T05:31:18;150950.31;;;18.31;72.15
14885;BME280;7534;50.762;7.000;2022-08-23T05:33:44;150971.41;;;18.39;71.90
14885;BME280;7534;50.762;7.000;2022-08-23T05:36:13;151028.06;;;18.61;70.91
14885;BME280;7534;50.762;7.000;2022-08-23T05:38:41;151074.22;;;18.79;70.04
14885;BME280;7534;50.762;7.000;2022-08-23T05:41:07;151099.25;;;18.88;69.07
14885;BME280;7534;50.762;7.000;2022-08-23T05:43:34;151174.34;;;19.17;68.17
14885;BME280;7534;50.762;7.000;2022-08-23T05:46:04;151191.50;;;19.24;67.21
14885;BME280;7534;50.762;7.000;2022-08-23T05:48:32;151220.50;;;19.35;66.95
14885;BME280;7534;50.762;7.000;2022-08-23T05:51:19;151269.34;;;19.54;67.04
14885;BME280;7534;50.762;7.000;2022-08-23T05:53:47;151308.91;;;19.69;66.53
14885;BME280;7534;50.762;7.000;2022-08-23T05:56:28;151344.50;;;19.83;65.94
14885;BME280;7534;50.762;7.000;2022-08-23T05:58:57;151374.84;;;19.94;64.93
14885;BME280;7534;50.762;7.000;2022-08-23T06:01:24;151380.09;;;19.96;62.62
14885;BME280;7534;50.762;7.000;2022-08-23T06:03:52;151380.09;;;19.96;61.98
14885;BME280;7534;50.762;7.000;2022-08-23T06:06:18;151359.00;;;19.88;61.76
14885;BME280;7534;50.762;7.000;2022-08-23T06:08:46;151395.97;;;20.02;60.83
14885;BME280;7534;50.762;7.000;2022-08-23T06:11:17;151432.88;;;20.16;60.39
14885;BME280;7534;50.762;7.000;2022-08-23T06:13:51;151457.97;;;20.26;59.55
14885;BME280;7534;50.762;7.000;2022-08-23T06:16:22;151483.03;;;20.36;59.42
14885;BME280;7534;50.762;7.000;2022-08-23T06:18:49;151504.16;;;20.44;59.36
14885;BME280;7534;50.762;7.000;2022-08-23T06:21:16;151566.16;;;20.68;58.71
14885;BME280;7534;50.762;7.000;2022-08-23T06:23:44;151595.22;;;20.79;57.95
14885;BME280;7534;50.762;7.000;2022-08-23T06:26:26;151687.63;;;21.14;57.09
14885;BME280;7534;50.762;7.000;2022-08-23T06:28:55;151751.06;;;21.39;56.05
14885;BME280;7534;50.762;7.000;2022-08-23T06:31:23;151814.44;;;21.63;55.09
14885;BME280;7534;50.762;7.000;2022-08-23T06:34:12;151850.09;;;21.77;53.34
14885;BME280;7534;50.762;7.000;2022-08-23T06:36:39;151904.28;;;21.97;53.40
14885;BME280;7534;50.762;7.000;2022-08-23T06:39:08;151987.56;;;22.29;52.60
14885;BME280;7534;50.762;7.000;2022-08-23T06:41:35;152207.00;;;23.13;51.45
14885;BME280;7534;50.762;7.000;2022-08-23T06:44:01;152704.69;;;25.04;46.08
14885;BME280;7534;50.762;7.000;2022-08-23T06:46:29;153399.34;;;27.69;40.14
14885;BME280;7534;50.762;7.000;2022-08-23T06:48:56;154047.47;;;30.17;34.86
14885;BME280;7534;50.762;7.000;2022-08-23T06:51:43;154352.03;;;31.33;32.24
14885;BME280;7534;50.762;7.000;2022-08-23T06:54:13;154676.78;;;32.56;30.26
14885;BME280;7534;50.762;7.000;2022-08-23T06:56:42;155015.16;;;33.85;27.95
14885;BME280;7534;50.762;7.000;2022-08-23T06:59:08;155043.16;;;33.96;27.45
14885;BME280;7534;50.762;7.000;2022-08-23T07:01:48;155357.78;;;35.15;25.72
14885;BME280;7534;50.762;7.000;2022-08-23T07:04:26;155731.38;;;36.57;24.29
14885;BME280;7534;50.762;7.000;2022-08-23T07:06:54;155782.16;;;36.77;22.99
14885;BME280;7534;50.762;7.000;2022-08-23T07:09:20;155876.94;;;37.13;22.87
14885;BME280;7534;50.762;7.000;2022-08-23T07:11:46;156150.81;;;38.16;21.77
14885;BME280;7534;50.762;7.000;2022-08-23T07:14:18;156243.00;;;38.51;21.49
14885;BME280;7534;50.762;7.000;2022-08-23T07:16:55;156415.44;;;39.17;20.70
14885;BME280;7534;50.762;7.000;2022-08-23T07:19:25;156446.19;;;39.28;20.45
14885;BME280;7534;50.762;7.000;2022-08-23T07:21:55;156632.09;;;39.99;19.82
14885;BME280;7534;50.762;7.000;2022-08-23T07:24:21;156543.81;;;39.65;19.80
14885;BME280;7534;50.762;7.000;2022-08-23T07:26:49;156601.38;;;39.87;19.81
14885;BME280;7534;50.762;7.000;2022-08-23T07:29:18;156555.88;;;39.70;19.68
14885;BME280;7534;50.762;7.000;2022-08-23T07:31:54;156688.31;;;40.20;19.35
14885;BME280;7534;50.762;7.000;2022-08-23T07:34:21;156917.13;;;41.07;19.40
14885;BME280;7534;50.762;7.000;2022-08-23T07:36:50;157017.50;;;41.45;17.81
14885;BME280;7534;50.762;7.000;2022-08-23T07:39:17;157227.75;;;42.24;17.17
14885;BME280;7534;50.762;7.000;2022-08-23T07:41:44;157306.84;;;42.54;17.19
14885;BME280;7534;50.762;7.000;2022-08-23T07:44:10;157322.88;;;42.60;16.92
14885;BME280;7534;50.762;7.000;2022-08-23T07:46:41;157443.44;;;43.06;16.27
14885;BME280;7534;50.762;7.000;2022-08-23T07:49:08;157234.44;;;42.27;17.25
14885;BME280;7534;50.762;7.000;2022-08-23T07:51:37;157408.63;;;42.93;16.56
14885;BME280;7534;50.762;7.000;2022-08-23T07:54:06;157237.13;;;42.28;16.95
14885;BME280;7534;50.762;7.000;2022-08-23T07:56:34;157116.63;;;41.82;17.44
14885;BME280;7534;50.762;7.000;2022-08-23T07:59:00;156811.38;;;40.67;18.06
14885;BME280;7534;50.762;7.000;2022-08-23T08:01:29;156867.59;;;40.88;nan
14885;BME280;7534;50.762;7.000;2022-08-23T08:03:58;156597.34;;;39.86;19.02
14885;BME280;7534;50.762;7.000;2022-08-23T08:06:33;156673.56;;;40.15;18.63
14885;BME280;7534;50.762;7.000;2022-08-23T08:08:59;157009.50;;;41.42;19.00
14885;BME280;7534;50.762;7.000;2022-08-23T08:11:29;157115.28;;;41.82;17.54
14885;BME280;7534;50.762;7.000;2022-08-23T08:13:55;157150.13;;;41.95;17.37
14885;BME280;7534;50.762;7.000;2022-08-23T08:16:34;157337.59;;;42.66;16.68
14885;BME280;7534;50.762;7.000;2022-08-23T08:19:04;157130.00;;;41.87;18.02
14885;BME280;7534;50.762;7.000;2022-08-23T08:21:31;157104.56;;;41.78;17.50
14885;BME280;7534;50.762;7.000;2022-08-23T08:23:57;157121.94;;;41.84;17.44
14885;BME280;7534;50.762;7.000;2022-08-23T08:26:24;157296.09;;;42.50;17.06
14885;BME280;7534;50.762;7.000;2022-08-23T08:28:50;157424.69;;;42.99;17.46
14885;BME280;7534;50.762;7.000;2022-08-23T08:31:17;157613.69;;;43.70;17.15
14885;BME280;7534;50.762;7.000;2022-08-23T08:33:42;157734.38;;;44.16;16.42
14885;BME280;7534;50.762;7.000;2022-08-23T08:38:56;157349.69;;;42.71;16.66
14885;BME280;7534;50.762;7.000;2022-08-23T08:46:55;157089.84;;;41.72;17.31
14885;BME280;7534;50.762;7.000;2022-08-23T08:49:45;156950.59;;;41.20;18.29
14885;BME280;7534;50.762;7.000;2022-08-23T08:52:26;156830.16;;;40.74;18.51
14885;BME280;7534;50.762;7.000;2022-08-23T08:55:16;156945.28;;;41.18;18.62
14885;BME280;7534;50.762;7.000;2022-08-23T08:57:46;156637.47;;;40.01;19.40
14885;BME280;7534;50.762;7.000;2022-08-23T09:00:36;156972.00;;;41.28;18.42
14885;BME280;7534;50.762;7.000;2022-08-23T09:03:19;157191.63;;;42.11;17.56
14885;BME280;7534;50.762;7.000;2022-08-23T09:06:05;157284.06;;;42.46;17.26
14885;BME280;7534;50.762;7.000;2022-08-23T09:14:35;157506.44;;;43.30;16.99
14885;BME280;7534;50.762;7.000;2022-08-23T09:17:18;157541.31;;;43.43;16.14
14885;BME280;7534;50.762;7.000;2022-08-23T09:19:47;157581.56;;;43.58;15.87
14885;BME280;7534;50.762;7.000;2022-08-23T09:22:27;157427.38;;;43.00;16.70
14885;BME280;7534;50.762;7.000;2022-08-23T09:24:57;157408.63;;;42.93;16.81
14885;BME280;7534;50.762;7.000;2022-08-23T09:27:23;157491.72;;;43.24;16.65
14885;BME280;7534;50.762;7.000;2022-08-23T09:29:57;157186.25;;;42.09;17.39
14885;BME280;7534;50.762;7.000;2022-08-23T09:32:31;156806.03;;;40.65;18.69
14885;BME280;7534;50.762;7.000;2022-08-23T09:35:13;157097.91;;;41.75;17.85
14885;BME280;7534;50.762;7.000;2022-08-23T09:38:17;157044.34;;;41.55;17.67
14885;BME280;7534;50.762;7.000;2022-08-23T09:40:49;156902.41;;;41.01;18.67
14885;BME280;7534;50.762;7.000;2022-08-23T09:43:21;156941.25;;;41.16;18.39
14885;BME280;7534;50.762;7.000;2022-08-23T09:51:16;156988.09;;;41.34;18.85
14885;BME280;7534;50.762;7.000;2022-08-23T09:53:51;157116.63;;;41.82;18.35
14885;BME280;7534;50.762;7.000;2022-08-23T09:56:31;156879.66;;;40.93;18.53
14885;BME280;7534;50.762;7.000;2022-08-23T09:58:58;156259.06;;;38.58;20.64
14885;BME280;7534;50.762;7.000;2022-08-23T10:01:27;156348.59;;;38.91;20.50
14885;BME280;7534;50.762;7.000;2022-08-23T10:04:54;156355.31;;;38.94;20.58
14885;BME280;7534;50.762;7.000;2022-08-23T10:09:47;156289.78;;;38.69;20.86
14885;BME280;7534;50.762;7.000;2022-08-23T10:12:13;156118.69;;;38.04;21.37
14885;BME280;7534;50.762;7.000;2022-08-23T10:14:38;156117.34;;;38.04;21.41
14885;BME280;7534;50.762;7.000;2022-08-23T10:17:26;156161.47;;;38.21;20.78
14885;BME280;7534;50.762;7.000;2022-08-23T10:25:59;155888.97;;;37.17;22.14
14885;BME280;7534;50.762;7.000;2022-08-23T10:37:27;155276.47;;;34.85;24.65
14885;BME280;7534;50.762;7.000;2022-08-23T10:40:00;155420.50;;;35.39;25.18
14885;BME280;7534;50.762;7.000;2022-08-23T10:45:51;155267.09;;;34.81;24.85
14885;BME280;7534;50.762;7.000;2022-08-23T10:48:47;155149.78;;;34.36;25.58
14885;BME280;7534;50.762;7.000;2022-08-23T10:51:25;155104.44;;;34.19;25.75
14885;BME280;7534;50.762;7.000;2022-08-23T10:54:06;155121.81;;;34.26;25.54
14885;BME280;7534;50.762;7.000;2022-08-23T10:56:36;155052.44;;;33.99;25.74
14885;BME280;7534;50.762;7.000;2022-08-23T10:59:23;155061.78;;;34.03;25.68
14885;BME280;7534;50.762;7.000;2022-08-23T11:06:54;155035.13;;;33.93;26.61
14885;BME280;7534;50.762;7.000;2022-08-23T11:12:23;155005.81;;;33.82;26.18
14885;BME280;7534;50.762;7.000;2022-08-23T11:14:57;155000.53;;;33.80;26.63
14885;BME280;7534;50.762;7.000;2022-08-23T11:17:33;154928.53;;;33.52;26.71
14885;BME280;7534;50.762;7.000;2022-08-23T11:20:11;154856.59;;;33.25;26.73
14885;BME280;7534;50.762;7.000;2022-08-23T11:27:47;154792.63;;;33.01;27.42
14885;BME280;7534;50.762;7.000;2022-08-23T11:33:33;154712.75;;;32.70;28.40
14885;BME280;7534;50.762;7.000;2022-08-23T11:36:21;154630.19;;;32.39;27.82
14885;BME280;7534;50.762;7.000;2022-08-23T11:44:32;154683.47;;;32.59;27.71
14885;BME280;7534;50.762;7.000;2022-08-23T11:47:05;154726.09;;;32.75;27.44
14885;BME280;7534;50.762;7.000;2022-08-23T11:50:03;154797.97;;;33.03;26.64
14885;BME280;7534;50.762;7.000;2022-08-23T11:52:53;154897.88;;;33.41;26.59
14885;BME280;7534;50.762;7.000;2022-08-23T11:56:00;154960.50;;;33.64;26.66
14885;BME280;7534;50.762;7.000;2022-08-23T12:01:45;154925.84;;;33.51;26.37
14885;BME280;7534;50.762;7.000;2022-08-23T12:04:37;154936.53;;;33.55;25.86
14885;BME280;7534;50.762;7.000;2022-08-23T12:07:06;155009.81;;;33.83;25.52
14885;BME280;7534;50.762;7.000;2022-08-23T12:12:23;155031.13;;;33.91;25.20
14885;BME280;7534;50.762;7.000;2022-08-23T12:14:55;155068.44;;;34.05;25.10
14885;BME280;7534;50.762;7.000;2022-08-23T12:19:57;155120.47;;;34.25;25.02
14885;BME280;7534;50.762;7.000;2022-08-23T12:22:56;155164.44;;;34.42;24.31
14885;BME280;7534;50.762;7.000;2022-08-23T12:25:20;155192.44;;;34.53;23.97
14885;BME280;7534;50.762;7.000;2022-08-23T12:30:54;155273.78;;;34.83;24.86
14885;BME280;7534;50.762;7.000;2022-08-23T12:33:39;155301.78;;;34.94;24.37
14885;BME280;7534;50.762;7.000;2022-08-23T12:36:21;155325.75;;;35.03;24.22
14885;BME280;7534;50.762;7.000;2022-08-23T12:44:19;155463.16;;;35.55;23.39
14885;BME280;7534;50.762;7.000;2022-08-23T12:46:48;155468.50;;;35.57;23.37
14885;BME280;7534;50.762;7.000;2022-08-23T12:49:31;155516.53;;;35.76;23.93
14885;BME280;7534;50.762;7.000;2022-08-23T12:52:08;155539.22;;;35.84;22.53
14885;BME280;7534;50.762;7.000;2022-08-23T12:54:43;155541.88;;;35.85;22.94
14885;BME280;7534;50.762;7.000;2022-08-23T12:57:17;155552.56;;;35.89;22.97
14885;BME280;7534;50.762;7.000;2022-08-23T13:00:00;155603.22;;;36.09;22.92
14885;BME280;7534;50.762;7.000;2022-08-23T13:02:32;155718.03;;;36.52;22.04
14885;BME280;7534;50.762;7.000;2022-08-23T13:05:31;155838.19;;;36.98;22.83
14885;BME280;7534;50.762;7.000;2022-08-23T13:08:03;155923.66;;;37.30;20.79
14885;BME280;7534;50.762;7.000;2022-08-23T13:10:30;155965.06;;;37.46;21.27
14885;BME280;7534;50.762;7.000;2022-08-23T13:12:57;155909.00;;;37.25;20.60
14885;BME280;7534;50.762;7.000;2022-08-23T13:15:56;155862.22;;;37.07;21.86
14885;BME280;7534;50.762;7.000;2022-08-23T13:18:42;155787.50;;;36.79;22.88
14885;BME280;7534;50.762;7.000;2022-08-23T13:21:39;155557.91;;;35.91;21.89
14885;BME280;7534;50.762;7.000;2022-08-23T13:24:33;155465.81;;;35.56;22.36
14885;BME280;7534;50.762;7.000;2022-08-23T13:27:22;155421.81;;;35.40;23.47
14885;BME280;7534;50.762;7.000;2022-08-23T13:32:45;155381.81;;;35.25;23.16
14885;BME280;7534;50.762;7.000;2022-08-23T13:37:54;155468.50;;;35.57;23.06
14885;BME280;7534;50.762;7.000;2022-08-23T13:40:28;155511.22;;;35.74;23.75
14885;BME280;7534;50.762;7.000;2022-08-23T13:43:06;155533.91;;;35.82;23.98
14885;BME280;7534;50.762;7.000;2022-08-23T13:45:46;155469.84;;;35.58;24.70
14885;BME280;7534;50.762;7.000;2022-08-23T13:48:22;155455.13;;;35.52;23.83
14885;BME280;7534;50.762;7.000;2022-08-23T13:50:49;155395.13;;;35.30;23.20
14885;BME280;7534;50.762;7.000;2022-08-23T13:53:15;155349.75;;;35.12;24.34
14885;BME280;7534;50.762;7.000;2022-08-23T13:55:55;155351.09;;;35.13;23.59
14885;BME280;7534;50.762;7.000;2022-08-23T13:58:30;155336.44;;;35.07;23.52
14885;BME280;7534;50.762;7.000;2022-08-23T14:00:58;155315.09;;;34.99;23.87
14885;BME280;7534;50.762;7.000;2022-08-23T14:03:26;155383.16;;;35.25;25.21
14885;BME280;7534;50.762;7.000;2022-08-23T14:05:53;155433.81;;;35.44;24.44
14885;BME280;7534;50.762;7.000;2022-08-23T14:08:20;155473.81;;;35.59;24.87
14885;BME280;7534;50.762;7.000;2022-08-23T14:10:46;155499.16;;;35.69;23.87
14885;BME280;7534;50.762;7.000;2022-08-23T14:13:15;155461.81;;;35.55;23.57
14885;BME280;7534;50.762;7.000;2022-08-23T14:15:44;155483.16;;;35.63;23.88
14885;BME280;7534;50.762;7.000;2022-08-23T14:18:11;155555.25;;;35.90;23.46
14885;BME280;7534;50.762;7.000;2022-08-23T14:20:38;155569.91;;;35.96;22.38
14885;BME280;7534;50.762;7.000;2022-08-23T14:23:04;155555.25;;;35.90;22.02
14885;BME280;7534;50.762;7.000;2022-08-23T14:25:30;155515.25;;;35.75;22.35
14885;BME280;7534;50.762;7.000;2022-08-23T14:27:57;155504.56;;;35.71;23.08
14885;BME280;7534;50.762;7.000;2022-08-23T14:30:31;155467.16;;;35.57;23.12
14885;BME280;7534;50.762;7.000;2022-08-23T14:32:58;155499.16;;;35.69;22.72
14885;BME280;7534;50.762;7.000;2022-08-23T14:35:24;155539.22;;;35.84;22.83
14885;BME280;7534;50.762;7.000;2022-08-23T14:37:50;155663.34;;;36.31;23.05
14885;BME280;7534;50.762;7.000;2022-08-23T14:40:16;155766.16;;;36.71;21.67
14885;BME280;7534;50.762;7.000;2022-08-23T14:42:44;155852.91;;;37.03;21.74
14885;BME280;7534;50.762;7.000;2022-08-23T14:45:12;155966.41;;;37.47;21.71
14885;BME280;7534;50.762;7.000;2022-08-23T14:47:38;155909.00;;;37.25;21.55
14885;BME280;7534;50.762;7.000;2022-08-23T14:50:07;155891.66;;;37.18;21.02
14885;BME280;7534;50.762;7.000;2022-08-23T14:52:37;155882.28;;;37.15;22.05
14885;BME280;7534;50.762;7.000;2022-08-23T14:55:05;155867.56;;;37.09;21.22
14885;BME280;7534;50.762;7.000;2022-08-23T14:57:31;155981.13;;;37.52;20.89